Terminal Aerodrome Forecast
Issued by NWS Upton, NY

Home | Current Version | Previous Version | Text Only | Print | Product List | Glossary On
Versions: 1 2 3 4 5 6 7 8 9 10 11 12 13 14 15 16 17 18 19 20 21 22 23 24 25 26 27
000
FTUS41 KOKX 191100
TAFEWR
TAF
KEWR 191130Z 1912/2018 02012KT P6SM FEW025 SCT070
      TEMPO 1912/1913 BKN020
     FM191500 05010KT P6SM FEW030 SCT050
     FM191900 09010KT P6SM SCT030
     FM192100 12008KT P6SM SCT035
     FM200600 12005KT P6SM SCT030
     FM200900 14004KT P6SM BKN030
     FM201500 17010KT P6SM BKN035=

USA.gov is the U.S. government's official web portal to all federal, state and local government web resources and services.